createdAt,value
2019-01-06T00:01:52.840Z,77981.94
2019-01-06T00:04:32.468Z,77986.94
2019-01-06T00:07:03.184Z,77996.95
2019-01-06T00:09:31.281Z,77991.94
2019-01-06T00:12:17.187Z,77993.95
2019-01-06T00:15:04.507Z,77993.95
2019-01-06T00:17:52.365Z,77993.95
2019-01-06T00:20:32.081Z,78004.95
2019-01-06T00:23:02.965Z,78000.95
2019-01-06T00:25:43.375Z,78006.96
2019-01-06T00:28:23.347Z,78003.95
2019-01-06T00:31:00.016Z,78003.95
2019-01-06T00:33:33.953Z,78007.96
2019-01-06T00:36:01.771Z,78008.96
2019-01-06T00:38:35.204Z,78008.96
2019-01-06T00:41:11.734Z,78004.95
2019-01-06T00:43:57.535Z,78007.96
2019-01-06T00:46:40.637Z,78005.95
2019-01-06T00:49:26.299Z,78007.96
2019-01-06T00:52:10.867Z,78006.96
2019-01-06T00:54:47.177Z,78012.97
2019-01-06T00:57:31.440Z,78002.95
2019-01-06T01:00:08.239Z,78011.97
2019-01-06T01:02:42.248Z,78006.96
2019-01-06T01:05:10.062Z,78007.96
2019-01-06T01:07:57.699Z,78008.96
2019-01-06T01:10:42.097Z,78004.95
2019-01-06T01:13:12.529Z,78004.95
2019-01-06T01:15:43.152Z,78010.97
2019-01-06T01:18:26.018Z,78010.97
2019-01-06T01:21:05.664Z,78009.97
2019-01-06T01:23:50.298Z,78021.98
2019-01-06T01:26:29.991Z,78019.97
2019-01-06T01:29:06.541Z,78023.98
2019-01-06T01:31:54.158Z,78022.98
2019-01-06T01:34:43.692Z,78026.98
2019-01-06T01:37:28.419Z,78021.98
2019-01-06T01:39:59.043Z,78019.97
2019-01-06T01:42:32.633Z,78025.98
2019-01-06T01:45:06.527Z,78021.98
2019-01-06T01:47:37.144Z,78031.98
2019-01-06T01:50:14.426Z,78033.98
2019-01-06T01:52:42.257Z,78033.98
2019-01-06T01:55:26.756Z,78031.98
2019-01-06T01:57:54.569Z,78032.98
2019-01-06T02:00:25.409Z,78033.98
2019-01-06T02:03:09.931Z,78040.00
2019-01-06T02:05:43.513Z,78047.00
2019-01-06T02:08:23.309Z,78060.02
2019-01-06T02:11:00.263Z,78062.02
2019-01-06T02:13:30.690Z,78060.02
2019-01-06T02:16:14.941Z,78066.03
2019-01-06T02:18:59.301Z,78064.02
2019-01-06T02:21:27.147Z,78075.04
2019-01-06T02:24:06.792Z,78072.03
2019-01-06T02:26:37.591Z,78072.03
2019-01-06T02:29:08.241Z,78083.05
2019-01-06T02:31:42.115Z,78080.05
2019-01-06T02:34:13.603Z,78074.04
2019-01-06T02:36:59.649Z,78075.04
2019-01-06T02:39:45.630Z,78075.04
2019-01-06T02:42:29.944Z,78075.04
2019-01-06T02:45:00.740Z,78074.04
2019-01-06T02:47:28.596Z,78080.05
2019-01-06T02:50:08.408Z,78080.05
2019-01-06T02:52:36.408Z,78082.05
2019-01-06T02:55:22.364Z,78080.05
2019-01-06T02:58:05.477Z,78085.05
2019-01-06T03:00:45.217Z,78080.05
2019-01-06T03:03:29.426Z,78083.05
2019-01-06T03:05:59.862Z,78084.05
2019-01-06T03:08:36.372Z,78079.05
2019-01-06T03:11:10.128Z,78077.05
2019-01-06T03:13:54.773Z,78086.05
2019-01-06T03:16:38.994Z,78085.05
2019-01-06T03:19:23.333Z,78086.05
2019-01-06T03:22:07.559Z,78085.05
2019-01-06T03:24:35.513Z,78082.05
2019-01-06T03:27:03.331Z,78085.05
2019-01-06T03:29:36.835Z,78084.05
2019-01-06T03:32:05.256Z,78078.05
2019-01-06T03:34:33.198Z,78085.05
2019-01-06T03:37:04.068Z,78088.05
2019-01-06T03:39:40.965Z,78085.05
2019-01-06T03:42:11.566Z,78080.05
2019-01-06T03:44:51.342Z,78085.05
2019-01-06T03:47:36.397Z,78089.05
2019-01-06T03:50:19.855Z,78085.05
2019-01-06T03:53:07.280Z,78090.05
2019-01-06T03:55:51.584Z,78085.05
2019-01-06T03:58:39.243Z,78096.06
2019-01-06T04:01:09.915Z,78096.06
2019-01-06T04:03:43.445Z,78089.05
2019-01-06T04:06:31.013Z,78093.06
2019-01-06T04:09:07.760Z,78091.06
2019-01-06T04:11:38.568Z,78094.06
2019-01-06T04:14:24.938Z,78098.06
2019-01-06T04:17:10.945Z,78094.06
2019-01-06T04:19:47.556Z,78101.07
2019-01-06T04:22:35.045Z,78094.06
2019-01-06T04:25:11.539Z,78094.06
2019-01-06T04:27:42.457Z,78086.05
2019-01-06T04:30:26.789Z,78091.06
2019-01-06T04:33:14.236Z,78092.06
2019-01-06T04:36:02.317Z,78093.06
2019-01-06T04:38:33.160Z,78090.05
2019-01-06T04:41:20.270Z,78090.05
2019-01-06T04:44:04.507Z,78095.06
2019-01-06T04:46:33.232Z,78089.05
2019-01-06T04:49:19.010Z,78089.05
2019-01-06T04:51:46.804Z,78092.06
2019-01-06T04:54:23.885Z,78098.06
2019-01-06T04:56:53.598Z,78097.06
2019-01-06T04:59:21.446Z,78097.06
2019-01-06T05:01:58.754Z,78104.07
2019-01-06T05:04:26.622Z,78110.08
2019-01-06T05:06:57.462Z,78109.08
2019-01-06T05:09:41.813Z,78117.09
2019-01-06T05:12:15.345Z,78116.09
2019-01-06T05:14:58.129Z,78118.09
2019-01-06T05:17:45.459Z,78114.08
2019-01-06T05:20:13.296Z,78114.08
2019-01-06T05:22:53.288Z,78114.08
2019-01-06T05:25:21.092Z,78114.08
2019-01-06T05:27:51.546Z,78114.08
2019-01-06T05:30:21.779Z,78116.09
2019-01-06T05:33:09.418Z,78115.09
2019-01-06T05:35:53.820Z,78122.09
2019-01-06T05:38:38.338Z,78121.09
2019-01-06T05:41:24.384Z,78127.09
2019-01-06T05:44:10.162Z,78124.09
2019-01-06T05:46:40.866Z,78126.09
2019-01-06T05:49:14.340Z,78142.12
2019-01-06T05:51:44.906Z,78141.11
2019-01-06T05:54:29.580Z,78141.11
2019-01-06T05:57:03.036Z,78142.12
2019-01-06T05:59:42.536Z,78144.12
2019-01-06T06:02:22.613Z,78144.12
2019-01-06T06:05:00.093Z,78148.13
2019-01-06T06:07:42.952Z,78147.13
2019-01-06T06:10:27.334Z,78154.13
2019-01-06T06:13:07.084Z,78162.14
2019-01-06T06:15:54.773Z,78164.14
2019-01-06T06:18:41.991Z,78166.14
2019-01-06T06:21:24.893Z,78161.14
2019-01-06T06:24:12.219Z,78167.15
2019-01-06T06:26:42.585Z,78172.16
2019-01-06T06:29:12.978Z,78172.16
2019-01-06T06:31:52.646Z,78171.16
2019-01-06T06:34:23.406Z,78173.16
2019-01-06T06:36:51.221Z,78182.16
2019-01-06T06:39:34.182Z,78184.17
2019-01-06T06:42:13.915Z,78173.16
2019-01-06T06:44:41.719Z,78184.17
2019-01-06T06:47:15.190Z,78191.17
2019-01-06T06:49:45.795Z,78190.17
2019-01-06T06:52:34.754Z,78193.17
2019-01-06T06:55:08.472Z,78205.19
2019-01-06T06:58:11.894Z,78203.19
2019-01-06T07:01:02.459Z,78204.19
2019-01-06T07:03:41.289Z,78200.19
2019-01-06T07:06:18.248Z,78201.19
2019-01-06T07:08:57.837Z,78198.19
2019-01-06T07:14:39.392Z,78215.20
2019-01-06T07:17:38.737Z,78220.20
2019-01-06T07:20:09.716Z,78220.20
2019-01-06T07:22:52.545Z,78222.21
2019-01-06T07:25:26.263Z,78222.21
2019-01-06T07:28:11.985Z,78226.22
2019-01-06T07:30:48.514Z,78226.22
2019-01-06T07:33:22.093Z,78223.21
2019-01-06T07:36:04.912Z,78221.21
2019-01-06T07:38:38.501Z,78227.22
2019-01-06T07:41:15.017Z,78227.22
2019-01-06T07:43:45.528Z,78228.22
2019-01-06T07:46:13.319Z,78232.22
2019-01-06T07:48:44.148Z,78230.22
2019-01-06T07:51:17.932Z,78233.22
2019-01-06T07:54:04.494Z,78238.23
2019-01-06T07:56:38.219Z,78231.22
2019-01-06T07:59:17.981Z,78230.22
2019-01-06T08:01:48.673Z,78240.23
2019-01-06T08:04:22.147Z,78236.23
2019-01-06T08:07:01.760Z,78240.23
2019-01-06T08:09:44.813Z,78244.23
2019-01-06T08:12:15.652Z,78239.23
2019-01-06T08:14:51.820Z,78244.23
2019-01-06T08:17:36.149Z,78239.23
2019-01-06T08:20:07.869Z,78246.23
2019-01-06T08:22:55.546Z,78242.23
2019-01-06T08:25:39.822Z,78237.23
2019-01-06T08:28:10.931Z,78236.23
2019-01-06T08:30:47.617Z,78240.23
2019-01-06T08:33:15.422Z,78243.23
2019-01-06T08:35:45.899Z,78244.23
2019-01-06T08:38:28.934Z,78246.23
2019-01-06T08:41:16.205Z,78253.25
2019-01-06T08:43:52.886Z,78250.25
2019-01-06T08:46:40.436Z,78251.25
2019-01-06T08:49:14.025Z,78245.23
2019-01-06T08:51:58.518Z,78249.24
2019-01-06T08:54:47.576Z,78246.23
2019-01-06T08:57:27.295Z,78261.27
2019-01-06T08:59:55.097Z,78261.27
2019-01-06T09:02:31.678Z,78256.25
2019-01-06T09:05:03.240Z,78252.25
2019-01-06T09:07:34.142Z,78250.25
2019-01-06T09:10:01.986Z,78256.25
2019-01-06T09:12:46.563Z,78260.26
2019-01-06T09:15:20.334Z,78263.27
2019-01-06T09:17:51.164Z,78263.27
2019-01-06T09:20:35.966Z,78262.27
2019-01-06T09:23:20.400Z,78262.27
2019-01-06T09:26:03.168Z,78262.27
2019-01-06T09:28:37.154Z,78265.27
2019-01-06T09:31:04.952Z,78267.27
2019-01-06T09:33:54.000Z,78259.26
2019-01-06T09:36:40.249Z,78257.25
2019-01-06T09:39:16.907Z,78256.25
2019-01-06T09:41:47.347Z,78248.24
2019-01-06T09:44:32.007Z,78246.23
2019-01-06T09:47:16.241Z,78248.24
2019-01-06T09:50:00.658Z,78246.23
2019-01-06T09:52:31.118Z,78238.23
2019-01-06T09:55:01.640Z,78252.25
2019-01-06T09:57:35.700Z,78247.24
2019-01-06T10:00:20.116Z,78252.25
2019-01-06T10:02:50.546Z,78253.25
2019-01-06T10:05:37.874Z,78255.25
2019-01-06T10:08:22.303Z,78248.24
2019-01-06T10:10:55.786Z,78250.25
2019-01-06T10:13:29.528Z,78250.25
2019-01-06T10:16:00.123Z,78253.25
2019-01-06T10:18:41.701Z,78253.25
2019-01-06T10:21:09.529Z,78258.25
2019-01-06T10:23:39.985Z,78257.25
2019-01-06T10:26:25.944Z,78262.27
2019-01-06T10:29:10.153Z,78268.27
2019-01-06T10:31:37.955Z,78257.25
2019-01-06T10:34:05.803Z,78255.25
2019-01-06T10:36:33.655Z,78257.25
2019-01-06T10:39:10.688Z,78263.27
2019-01-06T10:41:47.347Z,78261.27
2019-01-06T10:44:31.910Z,78268.27
2019-01-06T10:47:17.649Z,78256.25
2019-01-06T10:49:54.383Z,78250.25
2019-01-06T10:52:33.170Z,78244.23
2019-01-06T10:55:00.976Z,78248.24
2019-01-06T10:57:31.406Z,78242.23
2019-01-06T11:00:02.159Z,78243.23
2019-01-06T11:02:35.841Z,78251.25
2019-01-06T11:05:20.376Z,78254.25
2019-01-06T11:08:07.222Z,78249.24
2019-01-06T11:10:35.074Z,78255.25
2019-01-06T11:13:11.875Z,78252.25
2019-01-06T11:15:57.620Z,78276.28
2019-01-06T11:18:34.119Z,78257.25
2019-01-06T11:21:14.144Z,78249.24
2019-01-06T11:23:53.685Z,78330.34
2019-01-06T11:26:24.393Z,78370.39
2019-01-06T11:28:58.084Z,78414.45
2019-01-06T11:31:42.390Z,78436.48
2019-01-06T11:34:30.169Z,78414.45
2019-01-06T11:37:15.135Z,78487.55
2019-01-06T11:39:42.981Z,78465.52
2019-01-06T11:42:13.473Z,78496.55
2019-01-06T11:44:44.205Z,78506.56
2019-01-06T11:47:33.345Z,78382.41
2019-01-06T11:50:04.351Z,78330.34
2019-01-06T11:52:49.545Z,78292.30
2019-01-06T11:55:26.382Z,78285.29
2019-01-06T11:57:56.827Z,78297.30
2019-01-06T12:00:27.345Z,78356.38
2019-01-06T12:03:01.103Z,78312.32
2019-01-06T12:05:38.049Z,78292.30
2019-01-06T12:08:05.927Z,78286.29
2019-01-06T12:10:33.753Z,78273.27
2019-01-06T12:13:18.298Z,78271.27
2019-01-06T12:16:05.583Z,78273.27
2019-01-06T12:18:33.397Z,78274.28
2019-01-06T12:21:10.174Z,78275.28
2019-01-06T12:23:38.156Z,78264.27
2019-01-06T12:26:22.894Z,78263.27
2019-01-06T12:29:12.017Z,78258.25
2019-01-06T12:31:43.002Z,78259.26
2019-01-06T12:34:27.880Z,78259.26
2019-01-06T12:37:12.481Z,78260.26
2019-01-06T12:39:57.293Z,78264.27
2019-01-06T12:42:45.248Z,78261.27
2019-01-06T12:45:19.003Z,78271.27
2019-01-06T12:47:53.244Z,78263.27
2019-01-06T12:50:30.243Z,78271.27
2019-01-06T12:53:10.078Z,78263.27
2019-01-06T12:55:41.159Z,78257.25
2019-01-06T12:58:25.950Z,78262.27
2019-01-06T13:00:56.648Z,78269.27
2019-01-06T13:03:36.290Z,78264.27
2019-01-06T13:06:23.816Z,78270.27
2019-01-06T13:08:57.458Z,78275.28
2019-01-06T13:11:41.935Z,78267.27
2019-01-06T13:14:27.186Z,78272.27
2019-01-06T13:17:04.202Z,78278.28
2019-01-06T13:19:43.964Z,78273.27
2019-01-06T13:22:29.796Z,78276.28
2019-01-06T13:25:00.616Z,78276.28
2019-01-06T13:27:44.935Z,78274.28
2019-01-06T13:30:15.573Z,78275.28
2019-01-06T13:32:51.704Z,78272.27
2019-01-06T13:35:38.924Z,78275.28
2019-01-06T13:38:26.650Z,78275.28
2019-01-06T13:41:02.591Z,78281.28
2019-01-06T13:43:33.249Z,78284.29
2019-01-06T13:46:07.110Z,78280.28
2019-01-06T13:48:56.204Z,78286.29
2019-01-06T13:51:40.794Z,78286.29
2019-01-06T13:54:11.380Z,78281.28
2019-01-06T13:56:59.213Z,78278.28
2019-01-06T13:59:48.433Z,78284.29
2019-01-06T14:02:20.267Z,78292.30
2019-01-06T14:04:51.245Z,78290.30
2019-01-06T14:07:20.279Z,78296.30
2019-01-06T14:09:48.093Z,78296.30
2019-01-06T14:12:25.038Z,78299.30
2019-01-06T14:15:09.361Z,78295.30
2019-01-06T14:17:55.336Z,78300.31
2019-01-06T14:20:23.148Z,78290.30
2019-01-06T14:22:53.663Z,78297.30
2019-01-06T14:25:24.302Z,78290.30
2019-01-06T14:28:08.864Z,78291.30
2019-01-06T14:30:56.447Z,78294.30
2019-01-06T14:33:40.723Z,78286.29
2019-01-06T14:36:08.570Z,78290.30
2019-01-06T14:38:53.029Z,78289.30
2019-01-06T14:41:23.733Z,78294.30
2019-01-06T14:43:56.976Z,78294.30
2019-01-06T14:46:27.585Z,78297.30
2019-01-06T14:49:13.434Z,78296.30
2019-01-06T14:51:47.348Z,78294.30
2019-01-06T14:54:31.843Z,78292.30
2019-01-06T14:57:11.389Z,78286.29
2019-01-06T14:59:59.027Z,78300.31
2019-01-06T15:02:38.640Z,78297.30
2019-01-06T15:05:18.336Z,78298.30
2019-01-06T15:07:52.563Z,78300.31
2019-01-06T15:10:29.524Z,78301.31
2019-01-06T15:12:59.966Z,78298.30
2019-01-06T15:15:33.508Z,78304.31
2019-01-06T15:18:04.381Z,78298.30
2019-01-06T15:20:50.458Z,78300.31
2019-01-06T15:23:19.355Z,78304.31
2019-01-06T15:25:59.126Z,78300.31
2019-01-06T15:28:26.931Z,78302.31
2019-01-06T15:30:54.769Z,78300.31
2019-01-06T15:33:22.576Z,78301.31
2019-01-06T15:35:53.253Z,78304.31
2019-01-06T15:38:24.107Z,78304.31
2019-01-06T15:40:58.030Z,78305.31
2019-01-06T15:43:41.138Z,78310.32
2019-01-06T15:46:27.148Z,78307.31
2019-01-06T15:49:06.810Z,78308.31
2019-01-06T15:51:46.661Z,78312.32
2019-01-06T15:54:33.111Z,78309.31
2019-01-06T15:57:01.323Z,78308.31
2019-01-06T15:59:46.293Z,78309.31
2019-01-06T16:02:29.282Z,78304.31
2019-01-06T16:05:06.101Z,78310.32
2019-01-06T16:07:42.989Z,78312.32
2019-01-06T16:10:10.790Z,78303.31
2019-01-06T16:12:50.502Z,78310.32
2019-01-06T16:15:18.382Z,78307.31
2019-01-06T16:18:05.968Z,78303.31
2019-01-06T16:20:42.476Z,78319.33
2019-01-06T16:23:10.274Z,78324.34
2019-01-06T16:25:38.106Z,78320.33
2019-01-06T16:28:11.932Z,78327.34
2019-01-06T16:30:54.674Z,78328.34
2019-01-06T16:33:25.091Z,78322.33
2019-01-06T16:35:58.874Z,78334.34
2019-01-06T16:38:43.481Z,78329.34
2019-01-06T16:41:20.074Z,78324.34
2019-01-06T16:43:50.782Z,78321.33
2019-01-06T16:46:24.351Z,78317.33
2019-01-06T16:49:06.576Z,78328.34
2019-01-06T16:51:52.358Z,78328.34
2019-01-06T16:54:23.256Z,78320.33
2019-01-06T16:57:07.790Z,78317.33
2019-01-06T16:59:38.327Z,78319.33
2019-01-06T17:02:08.945Z,78320.33
2019-01-06T17:04:39.517Z,78317.33
2019-01-06T17:07:21.626Z,78318.33
2019-01-06T17:10:09.346Z,78313.32
2019-01-06T17:12:43.143Z,78316.33
2019-01-06T17:15:27.150Z,78313.32
2019-01-06T17:17:57.633Z,78319.33
2019-01-06T17:20:37.796Z,78322.33
2019-01-06T17:23:25.520Z,78317.33
2019-01-06T17:25:56.232Z,78320.33
2019-01-06T17:28:29.886Z,78323.34
2019-01-06T17:31:15.605Z,78323.34
2019-01-06T17:33:46.229Z,78325.34
2019-01-06T17:36:33.696Z,78326.34
2019-01-06T17:39:01.492Z,78328.34
2019-01-06T17:41:32.516Z,78329.34
2019-01-06T17:44:09.669Z,78327.34
2019-01-06T17:46:43.197Z,78326.34
2019-01-06T17:49:11.016Z,78328.34
2019-01-06T17:51:45.338Z,78333.34
2019-01-06T17:54:13.186Z,78331.34
2019-01-06T17:56:52.861Z,78326.34
2019-01-06T18:02:13.872Z,78332.34
2019-01-06T18:04:58.466Z,78330.34
2019-01-06T18:07:26.306Z,78333.34
2019-01-06T18:10:21.617Z,78334.34
2019-01-06T18:13:00.727Z,78335.34
2019-01-06T18:15:28.588Z,78336.35
2019-01-06T18:17:56.398Z,78338.35
2019-01-06T18:20:40.708Z,78338.35
2019-01-06T18:23:08.553Z,78346.36
2019-01-06T18:25:54.572Z,78349.37
2019-01-06T18:28:22.417Z,78340.36
2019-01-06T18:30:59.268Z,78338.35
2019-01-06T18:33:33.012Z,78335.34
2019-01-06T18:36:17.444Z,78338.35
2019-01-06T18:38:54.512Z,78335.34
2019-01-06T18:41:37.534Z,78336.35
2019-01-06T18:44:21.809Z,78337.35
2019-01-06T18:46:52.348Z,78337.35
2019-01-06T18:49:23.045Z,78339.36
2019-01-06T18:52:07.544Z,78329.34
2019-01-06T18:54:51.805Z,78334.34
2019-01-06T18:57:31.361Z,78334.34
2019-01-06T19:00:02.026Z,78336.35
2019-01-06T19:02:51.039Z,78337.35
2019-01-06T19:05:28.477Z,78336.35
2019-01-06T19:07:59.064Z,78330.34
2019-01-06T19:10:42.121Z,78333.34
2019-01-06T19:13:22.155Z,78333.34
2019-01-06T19:15:51.192Z,78326.34
2019-01-06T19:18:22.049Z,78327.34
2019-01-06T19:20:52.893Z,78330.34
2019-01-06T19:23:26.892Z,78336.35
2019-01-06T19:26:11.979Z,78340.36
2019-01-06T19:28:51.860Z,78342.36
2019-01-06T19:31:34.653Z,78350.37
2019-01-06T19:34:02.456Z,78350.37
2019-01-06T19:36:46.690Z,78351.37
2019-01-06T19:39:26.565Z,78349.37
2019-01-06T19:41:57.244Z,78346.36
2019-01-06T19:44:25.054Z,78344.36
2019-01-06T19:47:11.244Z,78343.36
2019-01-06T19:49:42.170Z,78347.36
2019-01-06T19:52:22.013Z,78340.36
2019-01-06T19:54:55.630Z,78347.36
2019-01-06T19:57:26.666Z,78335.34
2019-01-06T20:00:11.167Z,78332.34
2019-01-06T20:02:55.610Z,78336.35
2019-01-06T20:05:38.372Z,78343.36
2019-01-06T20:08:15.580Z,78336.35
2019-01-06T20:10:46.284Z,78333.34
2019-01-06T20:13:29.463Z,78327.34
2019-01-06T20:15:57.268Z,78328.34
2019-01-06T20:18:27.888Z,78332.34
2019-01-06T20:21:12.442Z,78324.34
2019-01-06T20:23:40.632Z,78324.34
2019-01-06T20:26:25.354Z,78330.34
2019-01-06T20:28:56.190Z,78332.34
2019-01-06T20:31:27.265Z,78325.34
2019-01-06T20:33:55.470Z,78326.34
2019-01-06T20:36:40.360Z,78334.34
2019-01-06T20:39:14.090Z,78339.36
2019-01-06T20:41:41.887Z,78334.34
2019-01-06T20:44:24.885Z,78330.34
2019-01-06T20:47:04.921Z,78333.34
2019-01-06T20:49:41.622Z,78328.34
2019-01-06T20:52:18.955Z,78332.34
2019-01-06T20:54:46.860Z,78331.34
2019-01-06T20:57:31.253Z,78330.34
2019-01-06T21:00:08.044Z,78325.34
2019-01-06T21:02:47.548Z,78331.34
2019-01-06T21:05:15.507Z,78324.34
2019-01-06T21:07:46.344Z,78320.33
2019-01-06T21:10:23.323Z,78323.34
2019-01-06T21:13:08.395Z,78323.34
2019-01-06T21:15:54.659Z,78327.34
2019-01-06T21:18:31.987Z,78330.34
2019-01-06T21:21:00.337Z,78328.34
2019-01-06T21:23:45.640Z,78331.34
2019-01-06T21:26:25.932Z,78334.34
2019-01-06T21:28:59.888Z,78331.34
2019-01-06T21:31:33.724Z,78341.36
2019-01-06T21:34:18.312Z,78341.36
2019-01-06T21:37:02.900Z,78340.36
2019-01-06T21:39:33.761Z,78337.35
2019-01-06T21:42:19.568Z,78341.36
2019-01-06T21:45:02.641Z,78338.35
2019-01-06T21:47:33.321Z,78335.34
2019-01-06T21:50:08.528Z,78338.35
2019-01-06T21:52:45.030Z,78347.36
2019-01-06T21:55:12.831Z,78345.36
2019-01-06T21:57:40.644Z,78344.36
2019-01-06T22:00:21.615Z,78346.36
2019-01-06T22:02:58.465Z,78344.36
2019-01-06T22:05:32.250Z,78344.36
2019-01-06T22:08:00.579Z,78352.38
2019-01-06T22:10:37.276Z,78354.38
2019-01-06T22:13:11.561Z,78352.38
2019-01-06T22:15:39.349Z,78356.38
2019-01-06T22:18:07.211Z,78357.38
2019-01-06T22:20:37.921Z,78357.38
2019-01-06T22:23:08.719Z,78357.38
2019-01-06T22:25:45.369Z,78358.38
2019-01-06T22:28:16.180Z,78364.39
2019-01-06T22:30:44.017Z,78356.38
2019-01-06T22:33:28.692Z,78355.38
2019-01-06T22:36:16.180Z,78354.38
2019-01-06T22:39:03.441Z,78352.38
2019-01-06T22:41:47.792Z,78354.38
2019-01-06T22:44:15.588Z,78360.38
2019-01-06T22:46:43.427Z,78362.38
2019-01-06T22:49:27.659Z,78356.38
2019-01-06T22:52:11.986Z,78350.37
2019-01-06T22:54:45.441Z,78346.36
2019-01-06T22:57:25.217Z,78349.37
2019-01-06T22:59:56.452Z,78360.38
2019-01-06T23:02:42.185Z,78359.38
2019-01-06T23:05:26.590Z,78356.38
2019-01-06T23:08:10.851Z,78354.38
2019-01-06T23:10:44.987Z,78349.37
2019-01-06T23:13:13.183Z,78348.36
2019-01-06T23:15:57.669Z,78348.36
2019-01-06T23:18:31.362Z,78357.38
2019-01-06T23:21:15.919Z,78348.36
2019-01-06T23:24:01.735Z,78347.36
2019-01-06T23:26:37.944Z,78349.37
2019-01-06T23:29:22.273Z,78350.37
2019-01-06T23:32:01.981Z,78352.38
2019-01-06T23:34:44.697Z,78353.38
2019-01-06T23:37:29.484Z,78355.38
2019-01-06T23:40:00.435Z,78354.38
2019-01-06T23:42:40.047Z,78354.38
2019-01-06T23:45:22.930Z,78355.38
2019-01-06T23:47:53.799Z,78356.38
2019-01-06T23:50:27.327Z,78364.39
2019-01-06T23:53:13.213Z,78363.39
2019-01-06T23:56:00.827Z,78366.39
2019-01-06T23:58:29.504Z,78355.38
